Alloway, New Jersey
Current Conditions -  °F | °C
As of 6:51 AM on Saturday 01 Nov 2014 (Local Time) from KILG Reporting Station
Moderate Rain Moderate Rain  
Wind Chill: 39°   Ceiling: 1600
Heat Index: 46°   Visibility: 8mi
Dew Point: 43°   Wind: 18mph
Humidity: 89%   Direction: 30°NNE
Pressure: 29.79"   Gusts: NA
Location:  39.56°N, 75.36°W
Report Text: KILG 011051Z 03016KT 8SM RA BKN016 OVC048 08/06 A2979 RMK AO2 SLP088 P0011 T00780061
Loading
Personal Weather Stations






























Interactive Weather Map
Tropical Storm Tracking
New forecast layout! Learn more

10-Day Weather Forecast

Advertisements
Track Severe Weather on mobile